Cairns, Queensland

2:09 AM AEST on August 31, 2016 (GMT +1000)
Cairns International | | Change Station

Elev 10 ft 16.87 °S, 145.75 °E | Updated 9 minutes ago

Overcast
Overcast
70 °F
Feels Like 70 °F
N
10
Wind Variable Wind from SSE

Today
High -- | Low -- °F
--% Chance of Precip.
Yesterday
High -- | Low -- °F
Precip. -- in
Pressure 30.09 in
Visibility 6.2 miles
Clouds Scattered Clouds 3100 ft
Scattered Clouds 4000 ft
Overcast 6700 ft
Dew Point 66 °F
Humidity 88%
Rainfall 0.00 in
Snow Depth Not available.
6:24 AM 6:10 PM
Waning Crescent, 3% visible
METAR YBCS 301600Z AUTO 16009KT 9999 // SCT031 SCT040 OVC067 21/19 Q1019
Pressure 30.09 in
Visibility 6.2 miles
Clouds Scattered Clouds 3100 ft
Scattered Clouds 4000 ft
Overcast 6700 ft
Dew Point 66 °F
Humidity 88%
Rainfall 0.00 in
Snow Depth Not available.
6:24 AM 6:10 PM
Waning Crescent, 3% visible
METAR YBCS 301600Z AUTO 16009KT 9999 // SCT031 SCT040 OVC067 21/19 Q1019

10-Day Weather Forecast

Almanac

Astronomy

Aug. 31, 2016 Rise Set
Actual Time
Civil Twilight
Nautical Twilight
Astronomical Twilight
Moon
Length of Visible Light
Length of Day
Tomorrow will be .
, % of the Moon is Illuminated

Today's Extremes

Country Highs Country Lows

Community

WunderPhotos

Upload Photos

1,935,857 photos uploaded!

WunderBlog® & News

Nearby

Air Quality

  Air Quality AQ Index Pollutant
Not available.

Snow Depth

Station Depth Elevation

Earthquake Activity

City Distance Mag. Time & Date
Minimum magnitude displayed is 2.5.

Coastal Water Temperatures

Place Temperature

Stations

Nearby Weather Stations

Station Location Temp. Windchill Dew Point Humidity Wind Precip. Elev Updated Type